KMTJ/MTJ METAR and TAF weather

Enter ICAO airport designator
Station Type Date Time Source
KMTJ METAR 2021/08/05 03:53 UTC NOAA

KMTJ 050353Z AUTO 18007KT 10SM CLR 22/08 A3026 RMK AO2 SLP166 T02170078


Station Type Date Time Source
KMTJ Decoded METAR 2021/08/05 03:53 UTC NOAA

MONTROSE REGIONAL AIRPORT, CO, United States (KMTJ) 38-30N 107-54W 1750M
Aug 04, 2021 - 11:53 PM EDT / 2021.08.05 0353 UTC
Wind: from the S (180 degrees) at 8 MPH (7 KT):0
Visibility: 10 mile(s):0
Sky conditions: clear
Temperature: 71.1 F (21.7 C)
Dew Point: 46.0 F (7.8 C)
Relative Humidity: 40%
Pressure (altimeter): 30.26 in. Hg (1024 hPa)
ob: KMTJ 050353Z AUTO 18007KT 10SM CLR 22/08 A3026 RMK AO2 SLP166 T02170078
cycle: 4

Station Type Date Time Source
KMTJ TAF 2021/08/04 18:34 UTC NOAA

TAF KMTJ 041731Z 0418/0518 32008KT P6SM FEW120
FM050100 35012KT P6SM FEW120
FM050400 15008KT P6SM SKC
FM051600 20005KT P6SM SKC

Example: see airport list